TimeEDT,TemperatureF,Dew PointF,Humidity,Sea Level PressureIn,VisibilityMPH,Wind Direction,Wind SpeedMPH,Gust SpeedMPH,PrecipitationIn,Events,Conditions,WindDirDegrees,DateUTC
12:53 AM,78.1,72.0,81,29.99,10.0,SW,6.9,-,N/A,,Clear,220,2013-07-19 04:53:00
1:53 AM,78.1,72.0,81,29.98,10.0,SW,6.9,-,N/A,,Clear,220,2013-07-19 05:53:00
2:53 AM,75.9,72.0,87,29.96,7.0,SW,6.9,-,N/A,,Clear,230,2013-07-19 06:53:00
3:53 AM,75.9,72.0,87,29.95,6.0,SSW,5.8,-,N/A,,Clear,210,2013-07-19 07:53:00
4:53 AM,75.9,72.0,87,29.94,5.0,SW,6.9,-,N/A,,Clear,220,2013-07-19 08:53:00
5:53 AM,75.9,72.0,87,29.92,5.0,SW,8.1,-,N/A,,Clear,220,2013-07-19 09:53:00
6:53 AM,75.9,72.0,87,29.94,4.0,SW,8.1,-,N/A,,Clear,220,2013-07-19 10:53:00
7:53 AM,78.1,72.0,81,29.93,6.0,SW,10.4,-,N/A,,Haze,220,2013-07-19 11:53:00
8:53 AM,81.0,72.0,74,29.94,10.0,SW,11.5,-,N/A,,Clear,230,2013-07-19 12:53:00
9:53 AM,86.0,72.0,63,29.94,10.0,SW,12.7,19.6,N/A,,Clear,230,2013-07-19 13:53:00
10:53 AM,88.0,72.0,59,29.93,10.0,SW,17.3,23.0,N/A,,Clear,230,2013-07-19 14:53:00
11:53 AM,91.0,72.0,53,29.92,10.0,WSW,19.6,-,N/A,,Clear,240,2013-07-19 15:53:00
12:53 PM,91.9,72.0,52,29.90,10.0,SW,16.1,25.3,N/A,,Clear,230,2013-07-19 16:53:00
1:53 PM,93.9,72.0,49,29.88,10.0,WSW,18.4,26.5,N/A,,Clear,240,2013-07-19 17:53:00
2:53 PM,93.9,70.0,46,29.85,10.0,SW,20.7,26.5,N/A,,Partly Cloudy,220,2013-07-19 18:53:00
3:53 PM,95.0,70.0,44,29.83,10.0,SW,18.4,25.3,N/A,,Partly Cloudy,230,2013-07-19 19:53:00
4:53 PM,95.0,70.0,44,29.81,10.0,SW,17.3,25.3,N/A,,Scattered Clouds,230,2013-07-19 20:53:00
5:53 PM,93.0,70.0,47,29.79,10.0,SW,21.9,27.6,N/A,,Mostly Cloudy,230,2013-07-19 21:53:00
6:53 PM,91.9,71.1,50,29.78,10.0,SW,15.0,-,N/A,,Clear,230,2013-07-19 22:53:00
7:53 PM,90.0,71.1,54,29.79,10.0,SW,12.7,-,N/A,,Partly Cloudy,230,2013-07-19 23:53:00
8:53 PM,87.1,73.0,63,29.79,10.0,SW,10.4,-,N/A,,Mostly Cloudy,220,2013-07-20 00:53:00
9:53 PM,82.9,73.0,72,29.79,10.0,SW,9.2,-,N/A,,Clear,220,2013-07-20 01:53:00
10:53 PM,82.9,73.0,72,29.79,10.0,SW,13.8,-,N/A,,Partly Cloudy,220,2013-07-20 02:53:00
11:53 PM,82.9,73.0,72,29.80,10.0,SW,11.5,-,N/A,,Scattered Clouds,220,2013-07-20 03:53:00